createdAt,value
2022-11-24T00:01:19.871Z,4.10
2022-11-24T00:03:52.799Z,3.80
2022-11-24T00:06:19.537Z,3.85
2022-11-24T00:08:46.712Z,3.70
2022-11-24T00:11:22.293Z,3.95
2022-11-24T00:13:49.308Z,4.30
2022-11-24T00:16:22.111Z,4.25
2022-11-24T00:18:50.278Z,4.35
2022-11-24T00:21:18.463Z,3.80
2022-11-24T00:23:46.145Z,4.13
2022-11-24T00:26:18.757Z,4.07
2022-11-24T00:28:47.586Z,4.28
2022-11-24T00:31:20.702Z,4.38
2022-11-24T00:33:49.942Z,4.30
2022-11-24T00:36:17.902Z,4.10
2022-11-24T00:38:45.725Z,4.40
2022-11-24T00:41:12.957Z,4.22
2022-11-24T00:43:39.851Z,3.63
2022-11-24T00:46:06.803Z,4.45
2022-11-24T00:48:33.542Z,4.70
2022-11-24T00:51:06.262Z,4.65
2022-11-24T00:53:33.487Z,4.28
2022-11-24T00:56:00.336Z,3.90
2022-11-24T00:58:27.114Z,3.90
2022-11-24T01:00:53.790Z,4.03
2022-11-24T01:03:22.742Z,3.05
2022-11-24T01:05:49.481Z,2.65
2022-11-24T01:08:16.258Z,2.80
2022-11-24T01:10:43.105Z,2.50
2022-11-24T01:13:09.820Z,2.25
2022-11-24T01:15:36.782Z,2.70
2022-11-24T01:18:04.251Z,2.67
2022-11-24T01:20:31.627Z,2.00
2022-11-24T01:22:58.353Z,2.03
2022-11-24T01:25:25.080Z,1.85
2022-11-24T01:27:51.754Z,1.75
2022-11-24T01:30:18.794Z,1.80
2022-11-24T01:32:45.768Z,1.85
2022-11-24T01:35:12.433Z,1.67
2022-11-24T01:37:39.445Z,1.95
2022-11-24T01:40:06.851Z,1.90
2022-11-24T01:42:48.501Z,2.00
2022-11-24T01:45:40.564Z,2.00
2022-11-24T01:48:19.635Z,1.60
2022-11-24T01:50:55.334Z,1.40
2022-11-24T01:53:24.061Z,1.40
2022-11-24T01:55:53.343Z,1.92
2022-11-24T01:58:23.975Z,1.75
2022-11-24T02:00:51.618Z,1.95
2022-11-24T02:03:23.675Z,1.65
2022-11-24T02:06:10.717Z,1.48
2022-11-24T02:09:06.262Z,1.50
2022-11-24T02:11:38.891Z,1.40
2022-11-24T02:14:07.933Z,1.30
2022-11-24T02:16:35.796Z,1.30
2022-11-24T02:19:12.887Z,1.50
2022-11-24T02:21:39.608Z,1.30
2022-11-24T02:24:29.631Z,1.50
2022-11-24T02:26:56.369Z,1.70
2022-11-24T02:29:23.121Z,2.05
2022-11-24T02:31:58.206Z,1.90
2022-11-24T02:34:24.877Z,1.80
2022-11-24T02:36:51.527Z,1.90
2022-11-24T02:39:18.410Z,1.80
2022-11-24T02:41:52.066Z,2.15
2022-11-24T02:44:22.252Z,2.10
2022-11-24T02:46:48.983Z,2.10
2022-11-24T02:49:16.206Z,1.92
2022-11-24T02:51:43.017Z,1.75
2022-11-24T02:54:09.847Z,1.80
2022-11-24T02:56:36.561Z,1.80
2022-11-24T02:59:03.259Z,1.98
2022-11-24T03:01:29.951Z,1.90
2022-11-24T03:03:56.705Z,2.00
2022-11-24T03:06:23.402Z,1.77
2022-11-24T03:08:50.384Z,1.85
2022-11-24T03:11:17.099Z,1.90
2022-11-24T03:13:43.772Z,2.20
2022-11-24T03:16:10.653Z,2.25
2022-11-24T03:18:37.497Z,1.90
2022-11-24T03:21:04.323Z,1.90
2022-11-24T03:23:31.357Z,1.92
2022-11-24T03:26:11.490Z,2.00
2022-11-24T03:28:38.294Z,1.90
2022-11-24T03:31:06.517Z,2.40
2022-11-24T03:33:33.867Z,2.20
2022-11-24T03:36:00.585Z,2.38
2022-11-24T03:38:27.776Z,2.42
2022-11-24T03:40:54.761Z,2.35
2022-11-24T03:43:21.513Z,2.50
2022-11-24T03:45:49.436Z,2.60
2022-11-24T03:48:17.598Z,2.45
2022-11-24T03:50:52.079Z,2.78
2022-11-24T03:55:45.451Z,2.78
2022-11-24T03:58:12.183Z,2.80
2022-11-24T04:00:40.156Z,2.90
2022-11-24T04:03:06.924Z,3.08
2022-11-24T04:05:36.294Z,2.28
2022-11-24T04:08:05.530Z,2.60
2022-11-24T04:10:36.059Z,2.53
2022-11-24T04:13:04.726Z,2.60
2022-11-24T04:15:31.555Z,2.70
2022-11-24T04:17:58.434Z,2.50
2022-11-24T04:20:25.162Z,2.50
2022-11-24T04:22:52.123Z,2.42
2022-11-24T04:25:19.158Z,2.28
2022-11-24T04:27:50.416Z,2.00
2022-11-24T04:30:17.539Z,2.35
2022-11-24T04:32:44.223Z,2.58
2022-11-24T04:35:11.050Z,2.50
2022-11-24T04:37:37.758Z,2.20
2022-11-24T04:40:06.894Z,2.05
2022-11-24T04:42:33.586Z,2.20
2022-11-24T04:45:00.565Z,2.50
2022-11-24T04:47:27.687Z,2.25
2022-11-24T04:49:54.414Z,2.30
2022-11-24T04:52:23.033Z,2.58
2022-11-24T04:54:50.035Z,2.58
2022-11-24T04:57:22.807Z,2.63
2022-11-24T04:59:50.837Z,2.40
2022-11-24T05:02:17.910Z,3.20
2022-11-24T05:04:45.320Z,2.53
2022-11-24T05:07:17.984Z,2.67
2022-11-24T05:10:03.796Z,2.80
2022-11-24T05:12:31.313Z,2.70
2022-11-24T05:14:59.454Z,2.92
2022-11-24T05:17:34.863Z,2.83
2022-11-24T05:20:01.806Z,2.83
2022-11-24T05:22:29.578Z,2.78
2022-11-24T05:24:56.230Z,2.95
2022-11-24T05:27:23.087Z,2.88
2022-11-24T05:29:49.798Z,2.92
2022-11-24T05:32:16.429Z,2.65
2022-11-24T05:34:43.256Z,2.67
2022-11-24T05:37:09.974Z,3.00
2022-11-24T05:39:37.128Z,2.88
2022-11-24T05:42:24.762Z,2.80
2022-11-24T05:44:52.156Z,3.17
2022-11-24T05:47:20.010Z,2.95
2022-11-24T05:49:46.883Z,3.20
2022-11-24T05:52:14.414Z,3.22
2022-11-24T05:54:41.100Z,2.92
2022-11-24T05:57:07.847Z,3.30
2022-11-24T05:59:35.956Z,2.72
2022-11-24T06:02:03.018Z,2.72
2022-11-24T06:04:29.805Z,2.67
2022-11-24T06:06:56.444Z,2.90
2022-11-24T06:09:23.149Z,3.15
2022-11-24T06:11:49.854Z,2.88
2022-11-24T06:14:16.496Z,2.92
2022-11-24T06:16:43.287Z,2.70
2022-11-24T06:19:11.147Z,2.75
2022-11-24T06:21:38.183Z,3.05
2022-11-24T06:24:05.527Z,2.80
2022-11-24T06:26:32.616Z,3.00
2022-11-24T06:28:59.470Z,3.22
2022-11-24T06:31:26.199Z,3.60
2022-11-24T06:33:53.824Z,3.00
2022-11-24T06:36:20.514Z,4.05
2022-11-24T06:38:47.445Z,3.58
2022-11-24T06:41:16.051Z,3.17
2022-11-24T06:43:43.159Z,2.78
2022-11-24T06:46:10.990Z,2.50
2022-11-24T06:48:38.392Z,2.80
2022-11-24T06:51:08.326Z,2.17
2022-11-24T06:53:38.046Z,2.80
2022-11-24T06:56:13.786Z,2.63
2022-11-24T06:58:44.839Z,2.88
2022-11-24T07:01:26.232Z,3.55
2022-11-24T07:03:54.776Z,3.38
2022-11-24T07:06:23.346Z,3.05
2022-11-24T07:08:50.933Z,2.80
2022-11-24T07:11:23.455Z,2.65
2022-11-24T07:13:59.681Z,2.80
2022-11-24T07:16:27.804Z,2.30
2022-11-24T07:18:55.276Z,2.92
2022-11-24T07:21:23.577Z,2.50
2022-11-24T07:23:55.542Z,2.28
2022-11-24T07:26:23.054Z,2.60
2022-11-24T07:28:50.778Z,2.40
2022-11-24T07:31:20.282Z,2.08
2022-11-24T07:33:52.030Z,1.65
2022-11-24T07:36:19.194Z,1.73
2022-11-24T07:38:45.997Z,1.67
2022-11-24T07:41:14.269Z,1.77
2022-11-24T07:43:41.175Z,1.63
2022-11-24T07:46:11.176Z,1.90
2022-11-24T07:48:38.120Z,1.80
2022-11-24T07:51:05.966Z,1.83
2022-11-24T07:53:34.359Z,2.08
2022-11-24T07:56:03.150Z,1.90
2022-11-24T07:58:33.185Z,1.70
2022-11-24T08:01:01.200Z,1.90
2022-11-24T08:03:28.262Z,2.08
2022-11-24T08:08:47.546Z,1.70
2022-11-24T08:11:16.545Z,1.92
2022-11-24T08:13:43.528Z,1.98
2022-11-24T08:16:12.548Z,2.47
2022-11-24T08:18:39.651Z,1.70
2022-11-24T08:21:07.408Z,2.20
2022-11-24T08:23:35.147Z,2.15
2022-11-24T08:26:06.174Z,1.95
2022-11-24T08:28:33.423Z,2.05
2022-11-24T08:31:14.068Z,2.20
2022-11-24T08:33:41.182Z,2.13
2022-11-24T08:36:13.613Z,2.30
2022-11-24T08:38:40.527Z,2.10
2022-11-24T08:41:09.919Z,2.20
2022-11-24T08:43:36.748Z,2.47
2022-11-24T08:46:11.596Z,2.63
2022-11-24T08:48:38.565Z,2.90
2022-11-24T08:51:13.419Z,2.90
2022-11-24T08:53:40.967Z,2.53
2022-11-24T08:56:08.362Z,2.45
2022-11-24T08:58:35.559Z,2.55
2022-11-24T09:01:11.326Z,2.75
2022-11-24T09:03:41.270Z,3.00
2022-11-24T09:06:11.739Z,3.63
2022-11-24T09:08:38.827Z,4.53
2022-11-24T09:11:12.219Z,3.08
2022-11-24T09:13:40.456Z,2.60
2022-11-24T09:16:09.740Z,2.30
2022-11-24T09:18:37.397Z,2.17
2022-11-24T09:21:15.767Z,2.42
2022-11-24T09:23:43.992Z,3.17
2022-11-24T09:26:14.292Z,3.30
2022-11-24T09:28:41.889Z,3.30
2022-11-24T09:31:11.947Z,3.47
2022-11-24T09:33:39.879Z,2.50
2022-11-24T09:36:07.446Z,2.10
2022-11-24T09:38:34.508Z,2.20
2022-11-24T09:41:23.176Z,2.10
2022-11-24T09:44:16.628Z,2.28
2022-11-24T09:46:54.723Z,2.75
2022-11-24T09:49:37.311Z,2.10
2022-11-24T09:52:10.866Z,2.08
2022-11-24T09:54:47.405Z,1.88
2022-11-24T09:57:15.959Z,2.83
2022-11-24T09:59:42.980Z,2.38
2022-11-24T10:02:14.055Z,2.40
2022-11-24T10:04:44.876Z,2.97
2022-11-24T10:07:12.010Z,3.60
2022-11-24T10:09:51.827Z,3.30
2022-11-24T10:12:36.068Z,3.15
2022-11-24T10:15:29.182Z,3.13
2022-11-24T10:18:09.298Z,2.92
2022-11-24T10:21:15.297Z,2.75
2022-11-24T10:24:19.855Z,2.72
2022-11-24T10:26:53.624Z,3.13
2022-11-24T10:29:32.608Z,2.83
2022-11-24T10:32:03.748Z,3.33
2022-11-24T10:34:34.603Z,2.67
2022-11-24T10:37:11.598Z,2.50
2022-11-24T10:40:55.822Z,2.40
2022-11-24T10:43:10.285Z,2.30
2022-11-24T10:45:39.302Z,2.17
2022-11-24T10:48:25.820Z,1.70
2022-11-24T10:51:11.998Z,1.45
2022-11-24T10:53:42.157Z,1.55
2022-11-24T10:56:09.241Z,1.95
2022-11-24T10:58:38.567Z,1.50
2022-11-24T11:01:14.738Z,1.30
2022-11-24T11:03:48.780Z,1.70
2022-11-24T11:06:25.374Z,1.15
2022-11-24T11:09:24.709Z,1.50
2022-11-24T11:11:53.785Z,2.05
2022-11-24T11:14:32.930Z,2.22
2022-11-24T11:16:59.812Z,2.33
2022-11-24T11:19:54.298Z,1.63
2022-11-24T11:22:30.087Z,1.17
2022-11-24T11:25:05.735Z,1.60
2022-11-24T11:27:32.482Z,1.33
2022-11-24T11:35:52.182Z,1.52
2022-11-24T11:38:20.341Z,1.20
2022-11-24T11:40:50.385Z,1.20
2022-11-24T11:43:28.714Z,0.80
2022-11-24T11:46:16.371Z,1.30
2022-11-24T11:48:46.922Z,1.23
2022-11-24T11:51:49.751Z,1.20
2022-11-24T11:54:28.537Z,1.10
2022-11-24T11:57:42.483Z,1.23
2022-11-24T12:00:12.547Z,1.20
2022-11-24T12:03:23.851Z,1.38
2022-11-24T12:06:14.256Z,1.08
2022-11-24T12:09:19.948Z,1.50
2022-11-24T12:12:29.291Z,1.40
2022-11-24T12:15:14.511Z,1.55
2022-11-24T12:18:01.391Z,3.35
2022-11-24T12:20:40.728Z,1.70
2022-11-24T12:23:09.574Z,2.45
2022-11-24T12:25:50.997Z,1.60
2022-11-24T12:28:42.640Z,1.55
2022-11-24T12:31:50.678Z,1.40
2022-11-24T12:34:33.889Z,1.98
2022-11-24T12:37:38.942Z,2.35
2022-11-24T12:40:20.931Z,2.30
2022-11-24T12:43:25.800Z,1.92
2022-11-24T12:46:17.873Z,1.70
2022-11-24T12:49:05.602Z,1.50
2022-11-24T12:51:42.151Z,1.38
2022-11-24T12:54:18.799Z,1.52
2022-11-24T12:56:48.859Z,1.15
2022-11-24T12:59:21.026Z,1.20
2022-11-24T13:02:15.996Z,1.50
2022-11-24T13:04:58.852Z,1.17
2022-11-24T13:07:45.042Z,1.40
2022-11-24T13:10:40.463Z,1.10
2022-11-24T13:13:15.534Z,1.13
2022-11-24T13:16:20.633Z,1.20
2022-11-24T13:18:56.825Z,1.13
2022-11-24T13:21:52.699Z,1.35
2022-11-24T13:24:24.271Z,1.33
2022-11-24T13:26:55.167Z,1.40
2022-11-24T13:29:28.325Z,1.60
2022-11-24T13:32:01.093Z,1.70
2022-11-24T13:34:42.912Z,1.80
2022-11-24T13:37:28.968Z,1.70
2022-11-24T13:40:14.568Z,2.08
2022-11-24T13:42:57.574Z,2.42
2022-11-24T13:45:39.927Z,1.90
2022-11-24T13:48:19.050Z,2.13
2022-11-24T13:50:54.814Z,2.40
2022-11-24T13:53:47.523Z,1.50
2022-11-24T13:56:14.365Z,3.00
2022-11-24T13:58:46.311Z,2.40
2022-11-24T14:01:16.280Z,2.40
2022-11-24T14:07:07.890Z,2.10
2022-11-24T14:09:45.370Z,1.90
2022-11-24T14:12:23.686Z,2.20
2022-11-24T14:14:57.184Z,2.25
2022-11-24T14:17:27.925Z,2.10
2022-11-24T14:19:56.638Z,2.08
2022-11-24T14:22:29.204Z,2.00
2022-11-24T14:24:58.361Z,2.13
2022-11-24T14:27:29.852Z,3.45
2022-11-24T14:29:59.351Z,3.05
2022-11-24T14:32:26.098Z,2.03
2022-11-24T14:34:54.263Z,2.40
2022-11-24T14:37:21.528Z,2.50
2022-11-24T14:39:48.500Z,2.80
2022-11-24T14:42:25.488Z,3.22
2022-11-24T14:44:58.753Z,2.88
2022-11-24T14:47:36.211Z,2.67
2022-11-24T14:50:19.309Z,2.10
2022-11-24T14:52:53.831Z,2.60
2022-11-24T14:57:52.558Z,24.40
2022-11-24T15:00:25.156Z,28.48
2022-11-24T15:03:01.981Z,17.70
2022-11-24T15:05:52.381Z,17.25
2022-11-24T15:08:19.881Z,22.33
2022-11-24T15:10:47.032Z,6.82
2022-11-24T15:13:22.772Z,3.00
2022-11-24T15:16:02.014Z,3.03
2022-11-24T15:18:44.055Z,2.50
2022-11-24T15:21:17.303Z,2.17
2022-11-24T15:24:24.441Z,2.00
2022-11-24T15:26:59.213Z,1.75
2022-11-24T15:29:26.191Z,1.80
2022-11-24T15:31:53.275Z,1.73
2022-11-24T15:34:20.233Z,2.05
2022-11-24T15:36:46.988Z,1.73
2022-11-24T15:39:13.774Z,1.70
2022-11-24T15:41:41.369Z,2.05
2022-11-24T15:44:08.830Z,1.98
2022-11-24T15:46:38.643Z,1.70
2022-11-24T15:49:06.410Z,2.33
2022-11-24T15:51:33.982Z,4.10
2022-11-24T15:54:01.623Z,5.47
2022-11-24T15:56:33.870Z,6.00
2022-11-24T15:59:01.618Z,3.60
2022-11-24T16:01:32.961Z,2.90
2022-11-24T16:04:00.780Z,2.50
2022-11-24T16:06:27.559Z,2.45
2022-11-24T16:08:54.712Z,3.30
2022-11-24T16:11:22.085Z,3.70
2022-11-24T16:13:52.888Z,2.80
2022-11-24T16:16:20.911Z,3.45
2022-11-24T16:18:47.713Z,2.50
2022-11-24T16:21:14.489Z,3.10
2022-11-24T16:23:41.329Z,5.60
2022-11-24T16:26:08.023Z,7.80
2022-11-24T16:28:34.910Z,9.40
2022-11-24T16:31:01.818Z,8.00
2022-11-24T16:33:30.088Z,5.10
2022-11-24T16:35:56.995Z,6.00
2022-11-24T16:38:23.857Z,4.43
2022-11-24T16:40:53.818Z,5.68
2022-11-24T16:43:20.673Z,8.35
2022-11-24T16:46:18.643Z,11.43
2022-11-24T16:48:47.449Z,7.65
2022-11-24T16:51:16.520Z,4.93
2022-11-24T16:53:43.523Z,5.40
2022-11-24T16:56:10.693Z,5.25
2022-11-24T16:58:39.628Z,4.75
2022-11-24T17:01:12.835Z,4.93
2022-11-24T17:03:40.027Z,5.07
2022-11-24T17:06:09.383Z,4.90
2022-11-24T17:08:37.735Z,4.85
2022-11-24T17:11:10.513Z,4.45
2022-11-24T17:13:37.409Z,4.20
2022-11-24T17:16:05.619Z,4.47
2022-11-24T17:18:32.933Z,3.97
2022-11-24T17:21:05.988Z,3.53
2022-11-24T17:23:36.128Z,3.80
2022-11-24T17:26:04.688Z,3.72
2022-11-24T17:28:31.422Z,3.55
2022-11-24T17:30:58.686Z,3.53
2022-11-24T17:33:25.479Z,3.65
2022-11-24T17:35:52.218Z,3.85
2022-11-24T17:38:18.999Z,6.70
2022-11-24T17:40:48.716Z,4.22
2022-11-24T17:43:15.358Z,5.07
2022-11-24T17:45:42.349Z,5.25
2022-11-24T17:48:09.077Z,5.50
2022-11-24T17:50:35.778Z,4.30
2022-11-24T17:53:02.575Z,4.63
2022-11-24T17:55:29.324Z,4.70
2022-11-24T17:57:56.429Z,4.93
2022-11-24T18:00:23.380Z,5.80
2022-11-24T18:02:50.109Z,4.35
2022-11-24T18:05:16.902Z,3.83
2022-11-24T18:07:43.617Z,4.43
2022-11-24T18:10:11.044Z,3.65
2022-11-24T18:12:37.752Z,3.72
2022-11-24T18:15:04.768Z,4.00
2022-11-24T18:17:31.426Z,3.85
2022-11-24T18:19:58.212Z,4.00
2022-11-24T18:22:50.168Z,4.18
2022-11-24T18:25:11.659Z,3.72
2022-11-24T18:27:38.348Z,4.25
2022-11-24T18:30:06.095Z,4.20
2022-11-24T18:32:33.053Z,4.22
2022-11-24T18:35:00.433Z,4.05
2022-11-24T18:37:32.276Z,4.75
2022-11-24T18:40:02.328Z,4.97
2022-11-24T18:42:29.504Z,4.80
2022-11-24T18:44:57.240Z,4.80
2022-11-24T18:47:24.555Z,4.30
2022-11-24T18:49:51.328Z,3.35
2022-11-24T18:52:18.042Z,3.45
2022-11-24T18:54:44.727Z,3.40
2022-11-24T18:57:11.748Z,4.22
2022-11-24T18:59:38.402Z,4.05
2022-11-24T19:02:05.542Z,4.20
2022-11-24T19:04:32.679Z,4.15
2022-11-24T19:06:59.627Z,4.15
2022-11-24T19:09:26.651Z,4.13
2022-11-24T19:11:53.535Z,4.25
2022-11-24T19:14:20.430Z,4.13
2022-11-24T19:16:48.473Z,3.75
2022-11-24T19:19:16.884Z,4.07
2022-11-24T19:21:44.027Z,3.97
2022-11-24T19:24:11.728Z,4.25
2022-11-24T19:26:38.952Z,3.63
2022-11-24T19:29:07.041Z,3.75
2022-11-24T19:31:35.045Z,3.40
2022-11-24T19:34:03.363Z,3.42
2022-11-24T19:36:30.925Z,4.10
2022-11-24T19:38:58.898Z,3.70
2022-11-24T19:41:28.573Z,3.65
2022-11-24T19:43:55.633Z,3.90
2022-11-24T19:46:27.080Z,3.30
2022-11-24T19:48:56.897Z,3.85
2022-11-24T19:51:26.317Z,3.70
2022-11-24T19:53:53.406Z,3.70
2022-11-24T19:56:21.919Z,4.18
2022-11-24T19:58:49.704Z,6.20
2022-11-24T20:01:17.734Z,12.40
2022-11-24T20:03:45.851Z,18.55
2022-11-24T20:06:14.264Z,23.75
2022-11-24T20:08:42.453Z,43.05
2022-11-24T20:11:12.160Z,7.80
2022-11-24T20:13:40.818Z,9.95
2022-11-24T20:16:12.812Z,5.85
2022-11-24T20:18:43.776Z,5.30
2022-11-24T20:21:19.564Z,6.70
2022-11-24T20:23:51.827Z,6.70
2022-11-24T20:26:20.860Z,8.02
2022-11-24T20:28:47.800Z,9.50
2022-11-24T20:31:17.749Z,10.43
2022-11-24T20:33:45.026Z,10.73
2022-11-24T20:36:17.754Z,10.95
2022-11-24T20:38:45.756Z,10.80
2022-11-24T20:41:34.000Z,9.93
2022-11-24T20:44:04.904Z,9.90
2022-11-24T20:46:33.470Z,11.30
2022-11-24T20:49:00.909Z,9.63
2022-11-24T20:51:30.599Z,9.25
2022-11-24T20:54:00.131Z,8.80
2022-11-24T20:56:30.146Z,8.73
2022-11-24T20:58:57.612Z,6.05
2022-11-24T21:01:30.288Z,6.70
2022-11-24T21:03:58.992Z,6.90
2022-11-24T21:06:28.122Z,6.85
2022-11-24T21:09:00.439Z,6.72
2022-11-24T21:11:31.053Z,7.97
2022-11-24T21:13:58.749Z,7.40
2022-11-24T21:16:34.569Z,7.47
2022-11-24T21:19:04.284Z,8.80
2022-11-24T21:21:34.512Z,8.88
2022-11-24T21:24:07.590Z,8.65
2022-11-24T21:26:39.346Z,9.30
2022-11-24T21:29:06.794Z,8.40
2022-11-24T21:31:37.700Z,7.60
2022-11-24T21:34:05.600Z,7.07
2022-11-24T21:36:34.076Z,6.90
2022-11-24T21:39:02.376Z,6.60
2022-11-24T21:41:32.796Z,6.40
2022-11-24T21:43:59.547Z,6.45
2022-11-24T21:46:28.124Z,5.68
2022-11-24T21:48:54.831Z,6.03
2022-11-24T21:51:22.114Z,5.18
2022-11-24T21:53:49.300Z,6.57
2022-11-24T21:56:21.494Z,6.30
2022-11-24T21:58:54.316Z,6.95
2022-11-24T22:01:23.397Z,7.13
2022-11-24T22:03:50.298Z,6.90
2022-11-24T22:06:19.360Z,6.25
2022-11-24T22:08:47.486Z,5.47
2022-11-24T22:11:15.527Z,5.18
2022-11-24T22:13:43.684Z,4.90
2022-11-24T22:16:22.339Z,5.22
2022-11-24T22:18:49.812Z,4.68
2022-11-24T22:21:24.245Z,5.53
2022-11-24T22:23:52.657Z,4.78
2022-11-24T22:26:21.462Z,5.55
2022-11-24T22:28:48.702Z,5.85
2022-11-24T22:31:19.856Z,6.03
2022-11-24T22:33:47.817Z,5.57
2022-11-24T22:36:16.344Z,5.10
2022-11-24T22:38:44.317Z,5.78
2022-11-24T22:41:13.962Z,5.50
2022-11-24T22:43:41.625Z,5.00
2022-11-24T22:46:11.850Z,4.50
2022-11-24T22:48:39.353Z,4.70
2022-11-24T22:51:24.548Z,4.60
2022-11-24T22:53:53.073Z,4.60
2022-11-24T22:56:20.488Z,4.60
2022-11-24T22:58:47.988Z,4.13
2022-11-24T23:01:17.179Z,4.43
2022-11-24T23:03:44.389Z,4.18
2022-11-24T23:06:13.699Z,4.25
2022-11-24T23:08:41.156Z,4.13
2022-11-24T23:11:10.603Z,4.00
2022-11-24T23:13:37.711Z,3.70
2022-11-24T23:16:07.261Z,3.30
2022-11-24T23:18:35.043Z,3.53
2022-11-24T23:21:13.095Z,3.83
2022-11-24T23:23:40.528Z,4.30
2022-11-24T23:26:09.837Z,4.18
2022-11-24T23:28:37.476Z,4.10
2022-11-24T23:31:09.338Z,4.00
2022-11-24T23:33:36.210Z,4.15
2022-11-24T23:36:05.395Z,3.97
2022-11-24T23:38:35.138Z,3.60
2022-11-24T23:41:05.215Z,4.18
2022-11-24T23:43:33.461Z,3.70
2022-11-24T23:46:20.714Z,4.00
2022-11-24T23:48:48.644Z,3.55
2022-11-24T23:51:20.483Z,4.10
2022-11-24T23:53:47.889Z,4.03
2022-11-24T23:56:17.217Z,3.80
2022-11-24T23:58:44.219Z,3.67
